Time;durP1;ratioP1;P1;durP2;ratioP2;P2;SDS_P1;SDS_P2;PMS_P1;PMS_P2;Temp;Humidity;BMP_temperature;BMP_pressure;BME280_temperature;BME280_humidity;BME280_pressure;Samples;Min_cycle;Max_cycle;Signal;HPM_P1;HPM_P2
2023/08/16 00:00:32;;;;;;;11.38;9.43;;;;;;;-146.82;100.00;71671.09;5075547;28;20078;-83
2023/08/16 00:03:00;;;;;;;13.75;10.05;;;;;;;-146.82;100.00;71671.09;5075269;28;20041;-82
2023/08/16 00:05:26;;;;;;;11.55;9.48;;;;;;;-146.82;100.00;71671.09;5076312;28;20048;-82
2023/08/16 00:07:51;;;;;;;13.48;10.07;;;;;;;-146.82;100.00;71671.09;5076286;28;20410;-83
2023/08/16 00:10:18;;;;;;;11.10;9.93;;;;;;;-146.82;100.00;71671.09;5076988;28;20059;-83
2023/08/16 00:12:45;;;;;;;15.43;10.30;;;;;;;-146.82;100.00;71671.09;5076900;28;20119;-83
2023/08/16 00:15:11;;;;;;;13.00;9.68;;;;;;;-146.82;100.00;71671.09;5077353;28;20016;-82
2023/08/16 00:17:44;;;;;;;12.48;9.93;;;;;;;-146.82;100.00;71671.09;5076192;28;20034;-83
2023/08/16 00:20:10;;;;;;;12.35;10.27;;;;;;;-146.82;100.00;71671.09;5091705;28;20086;-82
2023/08/16 00:22:44;;;;;;;15.88;10.73;;;;;;;-146.82;100.00;71671.09;5076159;28;20028;-83
2023/08/16 00:25:11;;;;;;;12.77;9.95;;;;;;;-146.82;100.00;71671.09;5076099;28;20170;-83
2023/08/16 00:27:42;;;;;;;16.42;9.75;;;;;;;-146.82;100.00;71671.09;5091804;28;20053;-83
2023/08/16 00:30:10;;;;;;;16.65;10.18;;;;;;;-146.82;100.00;71671.09;5075983;28;20017;-83
2023/08/16 00:32:36;;;;;;;15.48;10.80;;;;;;;-146.82;100.00;71671.09;5074900;28;20029;-84
2023/08/16 00:35:02;;;;;;;12.88;10.25;;;;;;;-146.82;100.00;71671.09;5076733;28;20025;-82
2023/08/16 00:37:28;;;;;;;12.30;10.43;;;;;;;-146.82;100.00;71671.09;5091515;28;20455;-82
2023/08/16 00:39:54;;;;;;;12.27;9.55;;;;;;;-146.82;100.00;71671.09;5092359;28;20028;-83
2023/08/16 00:42:19;;;;;;;13.00;9.70;;;;;;;-146.82;100.00;71671.09;5075218;28;20111;-83
2023/08/16 00:44:45;;;;;;;13.30;9.55;;;;;;;-146.82;100.00;71671.09;5076714;28;20071;-83
2023/08/16 00:47:11;;;;;;;11.18;10.02;;;;;;;-146.82;100.00;71671.09;5076878;28;20417;-84
2023/08/16 00:49:39;;;;;;;14.05;10.23;;;;;;;-146.82;100.00;71671.09;5076699;28;20027;-82
2023/08/16 00:52:06;;;;;;;13.32;10.38;;;;;;;-146.82;100.00;71671.09;5076262;28;20017;-83
2023/08/16 00:54:32;;;;;;;15.93;10.63;;;;;;;-146.82;100.00;71671.09;5074856;28;20119;-83
2023/08/16 00:56:58;;;;;;;11.93;10.73;;;;;;;-146.82;100.00;71671.09;5076021;28;20103;-82
2023/08/16 00:59:26;;;;;;;13.98;10.25;;;;;;;-146.82;100.00;71671.09;5074319;28;20039;-82
2023/08/16 01:01:53;;;;;;;11.07;9.98;;;;;;;-146.82;100.00;71671.09;5090916;28;20066;-83
2023/08/16 01:04:20;;;;;;;12.90;10.45;;;;;;;-146.82;100.00;71671.09;5075772;28;20091;-83
2023/08/16 01:06:48;;;;;;;19.55;10.93;;;;;;;-146.82;100.00;71671.09;5074827;28;20035;-83
2023/08/16 01:09:15;;;;;;;13.02;9.77;;;;;;;-146.82;100.00;71671.09;5075671;28;20042;-83
2023/08/16 01:12:08;;;;;;;12.02;10.52;;;;;;;-146.82;100.00;71671.09;5075393;28;20108;-85
2023/08/16 01:15:14;;;;;;;11.63;10.35;;;;;;;-146.82;100.00;71671.09;5057369;28;20094;-84
2023/08/16 01:17:50;;;;;;;14.75;10.88;;;;;;;-146.82;100.00;71671.09;5044182;28;20405;-82
2023/08/16 01:20:19;;;;;;;16.50;11.65;;;;;;;-146.82;100.00;71671.09;5057119;28;20028;-82
2023/08/16 01:23:01;;;;;;;14.02;11.10;;;;;;;-146.82;100.00;71671.09;5057188;28;20028;-83
2023/08/16 01:25:45;;;;;;;;;;;;;;;-146.82;100.00;71671.09;5075412;28;20021;-83
2023/08/16 01:28:11;;;;;;;15.18;10.52;;;;;;;-146.82;100.00;71671.09;5072639;28;20329;-83
2023/08/16 01:30:45;;;;;;;19.70;11.68;;;;;;;-146.82;100.00;71671.09;5089623;28;20023;-82
2023/08/16 01:33:12;;;;;;;13.60;10.85;;;;;;;-146.82;100.00;71671.09;5072214;28;20103;-84
2023/08/16 01:35:39;;;;;;;15.23;11.65;;;;;;;-146.82;100.00;71671.09;5089009;28;20120;-84
2023/08/16 01:38:06;;;;;;;14.20;10.88;;;;;;;-146.82;100.00;71671.09;5055359;28;20028;-82
2023/08/16 01:40:54;;;;;;;14.00;11.15;;;;;;;-146.82;100.00;71671.09;5088854;28;20028;-83
2023/08/16 01:43:21;;;;;;;15.27;11.10;;;;;;;-146.82;100.00;71671.09;5073501;28;20028;-82
2023/08/16 01:45:48;;;;;;;14.60;12.40;;;;;;;-146.82;100.00;71671.09;5074574;28;20028;-83
2023/08/16 01:48:15;;;;;;;14.55;11.57;;;;;;;-146.82;100.00;71671.09;5072524;28;20067;-82
2023/08/16 01:50:42;;;;;;;22.65;10.85;;;;;;;-146.82;100.00;71671.09;5077002;28;20036;-82
2023/08/16 01:53:08;;;;;;;11.70;9.57;;;;;;;-146.82;100.00;71671.09;5090274;28;20040;-81
2023/08/16 01:55:41;;;;;;;17.48;11.05;;;;;;;-146.82;100.00;71671.09;5073668;28;20024;-83
2023/08/16 01:58:17;;;;;;;14.30;11.82;;;;;;;-146.82;100.00;71671.09;5073024;28;20105;-82
2023/08/16 02:00:45;;;;;;;14.50;10.85;;;;;;;-146.82;100.00;71671.09;5089038;28;20028;-83
2023/08/16 02:03:14;;;;;;;11.65;10.45;;;;;;;-146.82;100.00;71671.09;5073166;28;20056;-84
2023/08/16 02:05:41;;;;;;;14.00;10.45;;;;;;;-146.82;100.00;71671.09;5074087;28;20029;-83
2023/08/16 02:08:10;;;;;;;14.10;10.68;;;;;;;-146.82;100.00;71671.09;5074153;28;20055;-83
2023/08/16 02:10:39;;;;;;;13.23;10.80;;;;;;;-146.82;100.00;71671.09;5089428;28;20036;-83
2023/08/16 02:13:04;;;;;;;18.20;10.48;;;;;;;-146.82;100.00;71671.09;5073759;28;20043;-83
2023/08/16 02:15:29;;;;;;;13.25;10.40;;;;;;;-146.82;100.00;71671.09;5073793;28;20024;-83
2023/08/16 02:17:55;;;;;;;15.25;10.75;;;;;;;-146.82;100.00;71671.09;5073549;28;20032;-83
2023/08/16 02:20:20;;;;;;;22.33;11.02;;;;;;;-146.82;100.00;71671.09;5073123;28;20451;-82
2023/08/16 02:22:46;;;;;;;15.48;10.18;;;;;;;-146.82;100.00;71671.09;5088865;28;20243;-83
2023/08/16 02:25:21;;;;;;;13.77;10.65;;;;;;;-146.82;100.00;71671.09;5071911;28;20132;-83
2023/08/16 02:27:46;;;;;;;14.05;11.05;;;;;;;-146.82;100.00;71671.09;5073634;28;20024;-84
2023/08/16 02:30:12;;;;;;;13.95;11.05;;;;;;;-146.82;100.00;71671.09;5089793;28;20032;-83
2023/08/16 02:32:38;;;;;;;12.30;10.77;;;;;;;-146.82;100.00;71671.09;5073362;28;20167;-83
2023/08/16 02:35:05;;;;;;;15.00;10.52;;;;;;;-146.82;100.00;71671.09;5090177;28;20490;-83
2023/08/16 02:37:30;;;;;;;16.17;10.60;;;;;;;-146.82;100.00;71671.09;5074331;28;20044;-83
2023/08/16 02:40:04;;;;;;;14.00;11.52;;;;;;;-146.82;100.00;71671.09;5074333;28;20016;-82
2023/08/16 02:42:32;;;;;;;17.27;10.40;;;;;;;-146.82;100.00;71671.09;5074019;28;20385;-82
2023/08/16 02:44:58;;;;;;;12.55;10.85;;;;;;;-146.82;100.00;71671.09;5089749;28;20119;-82
2023/08/16 02:47:24;;;;;;;11.18;9.98;;;;;;;-146.82;100.00;71671.09;5072074;28;20029;-83
2023/08/16 02:49:49;;;;;;;11.75;10.18;;;;;;;-146.82;100.00;71671.09;5073839;28;20492;-83
2023/08/16 02:52:18;;;;;;;15.98;10.90;;;;;;;-146.82;100.00;71671.09;5073891;28;20086;-82
2023/08/16 02:54:44;;;;;;;11.82;10.13;;;;;;;-146.82;100.00;71671.09;5089997;28;20547;-82
2023/08/16 02:57:10;;;;;;;16.35;11.18;;;;;;;-146.82;100.00;71671.09;5073650;28;20067;-83
2023/08/16 02:59:47;;;;;;;14.15;11.10;;;;;;;-146.82;100.00;71671.09;5074464;28;20025;-82
2023/08/16 03:02:14;;;;;;;17.70;11.75;;;;;;;-146.82;100.00;71671.09;5077830;28;20056;-82
2023/08/16 03:04:41;;;;;;;11.82;10.68;;;;;;;-146.82;100.00;71671.09;5093550;28;20024;-83
2023/08/16 03:07:09;;;;;;;15.45;11.82;;;;;;;-146.82;100.00;71671.09;5078176;28;20028;-83
2023/08/16 03:09:37;;;;;;;15.88;11.23;;;;;;;-146.82;100.00;71671.09;5076540;28;20020;-82
2023/08/16 03:12:04;;;;;;;18.98;12.35;;;;;;;-146.82;100.00;71671.09;5076451;28;20062;-82
2023/08/16 03:14:30;;;;;;;14.05;11.95;;;;;;;-146.82;100.00;71671.09;5077451;28;20120;-83
2023/08/16 03:17:00;;;;;;;19.70;12.15;;;;;;;-146.82;100.00;71671.09;5092972;28;20536;-83
2023/08/16 03:19:27;;;;;;;15.38;12.02;;;;;;;-146.82;100.00;71671.09;5093477;28;20032;-82
2023/08/16 03:21:56;;;;;;;13.38;11.10;;;;;;;-146.82;100.00;71671.09;5076582;28;20028;-83
2023/08/16 03:24:22;;;;;;;14.25;11.57;;;;;;;-146.82;100.00;71671.09;5093323;28;20021;-83
2023/08/16 03:26:47;;;;;;;14.90;10.77;;;;;;;-146.82;100.00;71671.09;5076642;28;20036;-83
2023/08/16 03:29:14;;;;;;;12.30;10.95;;;;;;;-146.82;100.00;71671.09;5093103;28;20037;-82
2023/08/16 03:31:41;;;;;;;29.38;11.98;;;;;;;-146.82;100.00;71671.09;5077185;28;20070;-82
2023/08/16 03:34:15;;;;;;;27.63;11.50;;;;;;;-146.82;100.00;71671.09;5077475;28;20056;-82
2023/08/16 03:36:42;;;;;;;23.40;11.52;;;;;;;-146.82;100.00;71671.09;5078310;28;20071;-81
2023/08/16 03:39:10;;;;;;;20.85;11.13;;;;;;;-146.82;100.00;71671.09;5093686;28;20028;-82
2023/08/16 03:41:37;;;;;;;17.58;11.35;;;;;;;-146.82;100.00;71671.09;5094773;28;20035;-81
2023/08/16 03:44:06;;;;;;;14.10;10.13;;;;;;;-146.82;100.00;71671.09;5110562;28;20020;-82
2023/08/16 03:46:33;;;;;;;16.27;11.38;;;;;;;-146.82;100.00;71671.09;5106810;28;20037;-82
2023/08/16 03:49:00;;;;;;;17.95;11.32;;;;;;;-146.82;100.00;71671.09;5091082;28;20028;-82
2023/08/16 03:51:26;;;;;;;15.30;11.70;;;;;;;-146.82;100.00;71671.09;5089928;28;20071;-82
2023/08/16 03:53:53;;;;;;;17.25;11.32;;;;;;;-146.82;100.00;71671.09;5082241;28;20176;-83
2023/08/16 03:56:20;;;;;;;13.60;10.25;;;;;;;-146.82;100.00;71671.09;5076425;28;20058;-82
2023/08/16 03:58:46;;;;;;;12.98;10.25;;;;;;;-146.82;100.00;71671.09;5093233;28;20028;-83
2023/08/16 04:01:11;;;;;;;13.98;10.80;;;;;;;-146.82;100.00;71671.09;5093425;28;20037;-83
2023/08/16 04:03:39;;;;;;;13.73;10.25;;;;;;;-146.82;100.00;71671.09;5093785;28;20080;-82
2023/08/16 04:06:11;;;;;;;12.60;11.30;;;;;;;-146.82;100.00;71671.09;5092313;28;20078;-82
2023/08/16 04:08:40;;;;;;;13.40;10.27;;;;;;;-146.82;100.00;71671.09;5097522;28;20038;-82
2023/08/16 04:11:10;;;;;;;12.80;9.68;;;;;;;-146.82;100.00;71671.09;5095757;28;20032;-82
2023/08/16 04:13:35;;;;;;;14.95;10.48;;;;;;;-146.82;100.00;71671.09;5096034;28;20032;-82
2023/08/16 04:16:01;;;;;;;17.90;10.27;;;;;;;-146.82;100.00;71671.09;5096757;28;20479;-82
2023/08/16 04:18:26;;;;;;;12.70;10.60;;;;;;;-146.82;100.00;71671.09;5112713;28;20059;-83
2023/08/16 04:20:54;;;;;;;12.45;10.52;;;;;;;-146.82;100.00;71671.09;5112755;28;20035;-82
2023/08/16 04:23:21;;;;;;;12.93;10.00;;;;;;;-146.82;100.00;71671.09;5095795;28;20051;-82
2023/08/16 04:25:47;;;;;;;12.38;9.45;;;;;;;-146.82;100.00;71671.09;5096092;28;20027;-82
2023/08/16 04:28:13;;;;;;;14.43;10.48;;;;;;;-146.82;100.00;71671.09;5097483;28;20023;-82
2023/08/16 04:30:38;;;;;;;14.88;9.82;;;;;;;-146.82;100.00;71671.09;5097469;28;20030;-82
2023/08/16 04:33:05;;;;;;;15.32;10.02;;;;;;;-146.82;100.00;71671.09;5089100;28;20028;-82
2023/08/16 04:35:32;;;;;;;12.98;9.05;;;;;;;-146.82;100.00;71671.09;5076074;28;20115;-82
2023/08/16 04:37:57;;;;;;;13.48;9.73;;;;;;;-146.82;100.00;71671.09;5076448;28;20028;-82
2023/08/16 04:40:23;;;;;;;11.73;9.43;;;;;;;-146.82;100.00;71671.09;5073925;28;20174;-83
2023/08/16 04:42:49;;;;;;;15.13;9.65;;;;;;;-146.82;100.00;71671.09;5091294;28;20021;-83
2023/08/16 04:45:14;;;;;;;14.55;9.75;;;;;;;-146.82;100.00;71671.09;5091465;28;20047;-82
2023/08/16 04:47:42;;;;;;;12.77;9.65;;;;;;;-146.82;100.00;71671.09;5075626;28;20431;-83
2023/08/16 04:50:08;;;;;;;15.15;9.60;;;;;;;-146.82;100.00;71671.09;5075580;28;20488;-83
2023/08/16 04:52:36;;;;;;;15.50;10.00;;;;;;;-146.82;100.00;71671.09;5074099;28;20028;-82
2023/08/16 04:55:02;;;;;;;13.13;9.73;;;;;;;-146.82;100.00;71671.09;5073452;28;20400;-83
2023/08/16 04:57:31;;;;;;;12.95;8.88;;;;;;;-146.82;100.00;71671.09;5075814;28;20081;-82
2023/08/16 05:00:06;;;;;;;13.10;9.27;;;;;;;-146.82;100.00;71671.09;5074093;28;20445;-83
2023/08/16 05:02:33;;;;;;;16.38;9.65;;;;;;;-146.82;100.00;71671.09;5090040;28;20045;-82
2023/08/16 05:05:01;;;;;;;14.32;9.00;;;;;;;-146.82;100.00;71671.09;5075587;28;20028;-83
2023/08/16 05:07:27;;;;;;;11.77;9.00;;;;;;;-146.82;100.00;71671.09;5073982;28;20031;-83
2023/08/16 05:09:54;;;;;;;12.25;8.80;;;;;;;-146.82;100.00;71671.09;5090912;28;20111;-83
2023/08/16 05:12:19;;;;;;;13.50;9.75;;;;;;;-146.82;100.00;71671.09;5075311;28;20075;-83
2023/08/16 05:14:44;;;;;;;10.85;9.70;;;;;;;-146.82;100.00;71671.09;5073922;28;20040;-83
2023/08/16 05:17:11;;;;;;;13.43;9.20;;;;;;;-146.82;100.00;71671.09;5091011;28;20028;-83
2023/08/16 05:19:39;;;;;;;12.60;9.68;;;;;;;-146.82;100.00;71671.09;5076352;28;20052;-79
2023/08/16 05:22:09;;;;;;;12.15;7.78;;;;;;;-146.82;100.00;71671.09;5073442;28;20033;-81
2023/08/16 05:24:38;;;;;;;8.75;7.18;;;;;;;-146.82;100.00;71671.09;5090473;28;20123;-80
2023/08/16 05:27:04;;;;;;;12.18;9.02;;;;;;;-146.82;100.00;71671.09;5090325;28;20025;-79
2023/08/16 05:29:30;;;;;;;10.10;8.27;;;;;;;-146.82;100.00;71671.09;5075045;28;20021;-77
2023/08/16 05:31:58;;;;;;;11.82;8.43;;;;;;;-146.82;100.00;71671.09;5090324;28;20497;-77
2023/08/16 05:34:29;;;;;;;15.40;8.50;;;;;;;-146.82;100.00;71671.09;5073290;28;20048;-78
2023/08/16 05:36:55;;;;;;;27.67;12.52;;;;;;;-146.82;100.00;71671.09;5074565;28;20095;-77
2023/08/16 05:39:22;;;;;;;13.88;8.80;;;;;;;-146.82;100.00;71671.09;5074650;28;20036;-78
2023/08/16 05:41:50;;;;;;;28.58;11.32;;;;;;;-146.82;100.00;71671.09;5074563;28;20028;-80
2023/08/16 05:44:18;;;;;;;25.45;11.40;;;;;;;-146.82;100.00;71671.09;5074359;28;20059;-76
2023/08/16 05:46:44;;;;;;;21.73;10.90;;;;;;;-146.82;100.00;71671.09;5074443;28;20031;-85
2023/08/16 05:49:09;;;;;;;15.52;8.85;;;;;;;-146.82;100.00;71671.09;5074557;28;20039;-84
2023/08/16 05:51:40;;;;;;;15.75;10.35;;;;;;;-146.82;100.00;71671.09;5074116;28;20029;-85
2023/08/16 05:54:05;;;;;;;10.40;9.20;;;;;;;-146.82;100.00;71671.09;5073585;28;20470;-85
2023/08/16 05:56:32;;;;;;;11.85;9.50;;;;;;;-146.82;100.00;71671.09;5084248;28;20116;-84
2023/08/16 05:58:58;;;;;;;15.25;8.77;;;;;;;-146.82;100.00;71671.09;5054025;28;20096;-83
2023/08/16 06:01:24;;;;;;;15.38;9.32;;;;;;;-146.82;100.00;71671.09;5065927;28;20044;-83
2023/08/16 06:03:49;;;;;;;18.98;10.40;;;;;;;-146.82;100.00;71671.09;5072604;28;20482;-82
2023/08/16 06:06:16;;;;;;;11.20;9.13;;;;;;;-146.82;100.00;71671.09;5071507;28;20020;-83
2023/08/16 06:09:03;;;;;;;14.02;8.85;;;;;;;-146.82;100.00;71671.09;5072810;28;20020;-82
2023/08/16 06:11:28;;;;;;;12.95;9.65;;;;;;;-146.82;100.00;71671.09;5073307;28;20039;-82
2023/08/16 06:13:54;;;;;;;19.38;10.80;;;;;;;-146.82;100.00;71671.09;5073112;28;20452;-82
2023/08/16 06:16:41;;;;;;;13.20;9.88;;;;;;;-146.82;100.00;71671.09;5072436;28;20037;-83
2023/08/16 06:19:06;;;;;;;15.45;9.68;;;;;;;-146.82;100.00;71671.09;5072968;28;20358;-83
2023/08/16 06:21:33;;;;;;;13.02;8.93;;;;;;;-146.82;100.00;71671.09;5071842;28;20492;-83
2023/08/16 06:23:58;;;;;;;13.27;10.45;;;;;;;-146.82;100.00;71671.09;5055265;28;20443;-84
2023/08/16 06:26:26;;;;;;;14.55;8.93;;;;;;;-146.82;100.00;71671.09;5073671;28;20073;-83
2023/08/16 06:28:53;;;;;;;15.70;10.60;;;;;;;-146.82;100.00;71671.09;5073757;28;20032;-85
2023/08/16 06:31:18;;;;;;;12.95;10.68;;;;;;;-146.82;100.00;71671.09;5073970;28;20029;-84
2023/08/16 06:33:45;;;;;;;13.00;10.50;;;;;;;-146.82;100.00;71671.09;5072445;28;20028;-82
2023/08/16 06:36:11;;;;;;;17.20;10.93;;;;;;;-146.82;100.00;71671.09;5072875;28;20512;-85
2023/08/16 06:38:38;;;;;;;11.70;10.27;;;;;;;-146.82;100.00;71671.09;5055471;28;20029;-83
2023/08/16 06:41:06;;;;;;;15.23;8.80;;;;;;;-146.82;100.00;71671.09;5073661;28;20059;-82
2023/08/16 06:43:34;;;;;;;13.35;8.93;;;;;;;-146.82;100.00;71671.09;5073616;28;20035;-84
2023/08/16 06:46:00;;;;;;;11.93;9.32;;;;;;;-146.82;100.00;71671.09;5073820;28;20047;-84
2023/08/16 06:48:28;;;;;;;9.95;8.80;;;;;;;-146.82;100.00;71671.09;5072710;28;20036;-85
2023/08/16 06:50:55;;;;;;;9.13;7.88;;;;;;;-146.82;100.00;71671.09;5073575;28;20077;-84
2023/08/16 06:53:21;;;;;;;8.63;7.50;;;;;;;-146.82;100.00;71671.09;5073830;28;20032;-84
2023/08/16 06:55:47;;;;;;;12.40;7.95;;;;;;;-146.82;100.00;71671.09;5073395;28;20032;-85
2023/08/16 06:58:14;;;;;;;9.60;7.88;;;;;;;-146.82;100.00;71671.09;5073392;28;20024;-84
2023/08/16 07:00:47;;;;;;;10.65;7.93;;;;;;;-146.82;100.00;71671.09;5073576;28;20058;-85
2023/08/16 07:03:28;;;;;;;7.75;6.82;;;;;;;-146.82;100.00;71671.09;5073154;28;20101;-85
2023/08/16 07:05:56;;;;;;;9.43;7.63;;;;;;;-146.82;100.00;71671.09;5073809;28;20112;-83
2023/08/16 07:08:25;;;;;;;10.18;7.43;;;;;;;-146.82;100.00;71671.09;5055696;28;20032;-83
2023/08/16 07:10:54;;;;;;;8.82;7.25;;;;;;;-146.82;100.00;71671.09;5073548;28;20067;-84
2023/08/16 07:13:20;;;;;;;8.50;6.88;;;;;;;-146.82;100.00;71671.09;5072180;28;20032;-84
2023/08/16 07:15:46;;;;;;;8.95;7.28;;;;;;;-146.82;100.00;71671.09;5073343;28;20047;-85
2023/08/16 07:18:14;;;;;;;9.77;8.55;;;;;;;-146.82;100.00;71671.09;5071544;28;20127;-83
2023/08/16 07:20:40;;;;;;;9.90;7.72;;;;;;;-146.82;100.00;71671.09;5073580;28;20029;-84
2023/08/16 07:23:06;;;;;;;13.77;7.20;;;;;;;-146.82;100.00;71671.09;5072536;28;20056;-84
2023/08/16 07:25:34;;;;;;;7.57;6.88;;;;;;;-146.82;100.00;71671.09;5072300;28;20036;-85
2023/08/16 07:27:59;;;;;;;11.05;6.85;;;;;;;-146.82;100.00;71671.09;5073583;28;20032;-84
2023/08/16 07:30:26;;;;;;;7.95;7.25;;;;;;;-146.82;100.00;71671.09;5073180;28;20116;-85
2023/08/16 07:32:51;;;;;;;9.68;7.40;;;;;;;-146.82;100.00;71671.09;5074546;28;20362;-85
2023/08/16 07:35:17;;;;;;;7.88;7.20;;;;;;;-146.82;100.00;71671.09;5072177;28;20024;-85
2023/08/16 07:37:44;;;;;;;7.85;6.68;;;;;;;-146.82;100.00;71671.09;5071570;28;20048;-85
2023/08/16 07:40:10;;;;;;;8.88;7.00;;;;;;;-146.82;100.00;71671.09;5072174;28;20122;-86
2023/08/16 07:42:36;;;;;;;7.15;6.63;;;;;;;-146.82;100.00;71671.09;5073171;28;20056;-85
2023/08/16 07:45:03;;;;;;;11.27;8.02;;;;;;;-146.82;100.00;71671.09;5072101;28;20028;-84
2023/08/16 07:47:30;;;;;;;7.75;6.53;;;;;;;-146.82;100.00;71671.09;5073892;28;20428;-85
2023/08/16 07:49:57;;;;;;;8.07;6.10;;;;;;;-146.82;100.00;71671.09;5090384;28;20031;-83
2023/08/16 07:52:22;;;;;;;8.32;7.35;;;;;;;-146.82;100.00;71671.09;5096179;28;20363;-84
2023/08/16 07:54:49;;;;;;;8.73;6.90;;;;;;;-146.82;100.00;71671.09;5097242;28;20038;-85
2023/08/16 07:57:16;;;;;;;7.05;6.38;;;;;;;-146.82;100.00;71671.09;5096178;28;20063;-85
2023/08/16 07:59:50;;;;;;;6.65;5.90;;;;;;;-146.82;100.00;71671.09;5096409;28;20082;-85
2023/08/16 08:02:17;;;;;;;7.28;6.65;;;;;;;-146.82;100.00;71671.09;5096313;28;20040;-83
2023/08/16 08:04:45;;;;;;;8.27;6.13;;;;;;;-146.82;100.00;71671.09;5094767;28;20028;-86
2023/08/16 08:07:11;;;;;;;9.07;6.50;;;;;;;-146.82;100.00;71671.09;5077375;28;20133;-85
2023/08/16 08:09:36;;;;;;;8.07;6.97;;;;;;;-146.82;100.00;71671.09;5077173;28;20486;-86
2023/08/16 08:12:03;;;;;;;8.90;6.38;;;;;;;-146.82;100.00;71671.09;5076708;28;20511;-86
2023/08/16 08:14:29;;;;;;;10.07;6.60;;;;;;;-146.82;100.00;71671.09;5076965;28;20028;-86
2023/08/16 08:16:56;;;;;;;11.30;7.03;;;;;;;-146.82;100.00;71671.09;5076442;28;20046;-86
2023/08/16 08:19:22;;;;;;;8.40;6.20;;;;;;;-146.82;100.00;71671.09;5076604;28;20024;-85
2023/08/16 08:21:49;;;;;;;6.85;6.20;;;;;;;-146.82;100.00;71671.09;5076297;28;20142;-85
2023/08/16 08:24:16;;;;;;;7.32;6.22;;;;;;;-146.82;100.00;71671.09;5075182;28;20032;-86
2023/08/16 08:26:43;;;;;;;7.53;6.82;;;;;;;-146.82;100.00;71671.09;5076327;28;20381;-86
2023/08/16 08:29:08;;;;;;;7.65;6.35;;;;;;;-146.82;100.00;71671.09;5075866;28;20062;-85
2023/08/16 08:31:34;;;;;;;6.88;6.28;;;;;;;-146.82;100.00;71671.09;5058268;28;20024;-86
2023/08/16 08:34:00;;;;;;;8.20;6.57;;;;;;;-146.82;100.00;71671.09;5076825;28;20024;-86
2023/08/16 08:36:26;;;;;;;11.00;7.40;;;;;;;-146.82;100.00;71671.09;5075916;28;20021;-86
2023/08/16 08:38:52;;;;;;;9.30;7.68;;;;;;;-146.82;100.00;71671.09;5075981;28;20113;-85
2023/08/16 08:41:21;;;;;;;9.23;6.90;;;;;;;-146.82;100.00;71671.09;5075912;28;20433;-84
2023/08/16 08:43:48;;;;;;;8.57;6.38;;;;;;;-146.82;100.00;71671.09;5074559;28;20024;-85
2023/08/16 08:46:15;;;;;;;7.20;6.55;;;;;;;-146.82;100.00;71671.09;5074315;28;20111;-85
2023/08/16 08:48:41;;;;;;;8.25;6.28;;;;;;;-146.82;100.00;71671.09;5074329;28;20024;-78
2023/08/16 08:51:08;;;;;;;7.22;6.50;;;;;;;-146.82;100.00;71671.09;5075776;28;20020;-78
2023/08/16 08:53:33;;;;;;;9.52;6.43;;;;;;;-146.82;100.00;71671.09;5074211;28;20066;-79
2023/08/16 08:56:16;;;;;;;6.75;5.97;;;;;;;-146.82;100.00;71671.09;5075305;28;20024;-78
2023/08/16 08:58:43;;;;;;;11.48;6.45;;;;;;;-146.82;100.00;71671.09;5074103;28;20041;-79
2023/08/16 09:01:11;;;;;;;7.13;6.43;;;;;;;-146.82;100.00;71671.09;5108134;28;20098;-79
2023/08/16 09:03:38;;;;;;;8.00;5.97;;;;;;;-146.82;100.00;71671.09;5075224;28;20106;-78
2023/08/16 09:06:07;;;;;;;9.55;6.28;;;;;;;-146.82;100.00;71671.09;5074276;28;20020;-76
2023/08/16 09:08:36;;;;;;;6.25;5.65;;;;;;;-146.82;100.00;71671.09;5075336;28;20385;-77
2023/08/16 09:11:03;;;;;;;8.35;5.70;;;;;;;-146.82;100.00;71671.09;5107637;28;20086;-76
2023/08/16 09:13:31;;;;;;;9.82;6.45;;;;;;;-146.82;100.00;71671.09;5090629;28;20060;-77
2023/08/16 09:15:59;;;;;;;9.48;6.30;;;;;;;-146.82;100.00;71671.09;5074769;28;20021;-77
2023/08/16 09:18:27;;;;;;;17.35;6.25;;;;;;;-146.82;100.00;71671.09;5074901;28;20436;-75
2023/08/16 09:20:52;;;;;;;10.77;6.07;;;;;;;-146.82;100.00;71671.09;5074965;28;20024;-77
2023/08/16 09:23:18;;;;;;;9.77;6.28;;;;;;;-146.82;100.00;71671.09;5107591;28;20031;-77
2023/08/16 09:25:44;;;;;;;9.35;7.18;;;;;;;-146.82;100.00;71671.09;5107526;28;20032;-77
2023/08/16 09:28:17;;;;;;;6.35;5.72;;;;;;;-146.82;100.00;71671.09;5075079;28;20013;-76
2023/08/16 09:30:42;;;;;;;6.13;5.63;;;;;;;-146.82;100.00;71671.09;5074863;28;20081;-77
2023/08/16 09:33:08;;;;;;;6.45;5.75;;;;;;;-146.82;100.00;71671.09;5074960;28;20028;-77
2023/08/16 09:35:48;;;;;;;6.40;5.60;;;;;;;-146.82;100.00;71671.09;5107430;28;20058;-77
2023/08/16 09:38:15;;;;;;;6.68;5.93;;;;;;;-146.82;100.00;71671.09;5073396;28;20031;-76
2023/08/16 09:40:51;;;;;;;7.32;5.55;;;;;;;-146.82;100.00;71671.09;5078456;28;20526;-77
2023/08/16 09:43:20;;;;;;;9.15;5.85;;;;;;;-146.82;100.00;71671.09;5110655;28;20027;-76
2023/08/16 09:45:51;;;;;;;6.57;5.97;;;;;;;-146.82;100.00;71671.09;5094678;28;20111;-76
2023/08/16 09:48:21;;;;;;;11.60;6.10;;;;;;;-146.82;100.00;71671.09;5110358;28;20016;-76
2023/08/16 09:50:47;;;;;;;12.80;6.63;;;;;;;-146.82;100.00;71671.09;5094624;28;20077;-74
2023/08/16 09:53:12;;;;;;;12.95;6.53;;;;;;;-146.82;100.00;71671.09;5093345;28;20048;-75
2023/08/16 09:55:40;;;;;;;10.88;5.68;;;;;;;-146.82;100.00;71671.09;5110229;28;20503;-76
2023/08/16 09:58:07;;;;;;;11.80;6.20;;;;;;;-146.82;100.00;71671.09;5094832;28;20031;-77
2023/08/16 10:00:34;;;;;;;8.70;5.85;;;;;;;-146.82;100.00;71671.09;5093505;28;20142;-75
2023/08/16 10:03:01;;;;;;;6.03;5.43;;;;;;;-146.82;100.00;71671.09;5094440;28;20492;-75
2023/08/16 10:05:26;;;;;;;7.55;5.75;;;;;;;-146.82;100.00;71671.09;5094348;28;20102;-76
2023/08/16 10:07:54;;;;;;;6.15;5.68;;;;;;;-146.82;100.00;71671.09;5093254;28;20107;-76
2023/08/16 10:10:20;;;;;;;9.18;5.50;;;;;;;-146.82;100.00;71671.09;5093621;28;20344;-77
2023/08/16 10:12:46;;;;;;;7.10;6.30;;;;;;;-146.82;100.00;71671.09;5094431;28;20098;-76
2023/08/16 10:15:12;;;;;;;6.72;5.57;;;;;;;-146.82;100.00;71671.09;5093969;28;20476;-77
2023/08/16 10:17:42;;;;;;;6.47;5.78;;;;;;;-146.82;100.00;71671.09;5094035;28;20024;-79
2023/08/16 10:20:22;;;;;;;8.02;5.93;;;;;;;-146.82;100.00;71671.09;5094127;28;20024;-77
2023/08/16 10:22:55;;;;;;;8.13;6.38;;;;;;;-146.82;100.00;71671.09;5094194;28;20050;-76
2023/08/16 10:25:33;;;;;;;8.90;5.90;;;;;;;-146.82;100.00;71671.09;5095919;28;20037;-78
2023/08/16 10:28:00;;;;;;;6.68;5.88;;;;;;;-146.82;100.00;71671.09;5055790;28;20032;-76
2023/08/16 10:30:27;;;;;;;8.32;5.22;;;;;;;-146.82;100.00;71671.09;5071483;28;20477;-75
2023/08/16 10:32:56;;;;;;;8.05;6.05;;;;;;;-146.82;100.00;71671.09;5072656;28;20032;-75
2023/08/16 10:35:37;;;;;;;7.78;5.60;;;;;;;-146.82;100.00;71671.09;5073842;28;20036;-75
2023/08/16 10:38:05;;;;;;;8.85;6.10;;;;;;;-146.82;100.00;71671.09;5072730;28;20028;-75
2023/08/16 10:40:32;;;;;;;8.23;5.78;;;;;;;-146.82;100.00;71671.09;5073897;28;20016;-77
2023/08/16 10:43:04;;;;;;;6.40;5.78;;;;;;;-146.82;100.00;71671.09;5073690;28;20031;-75
2023/08/16 10:45:35;;;;;;;6.82;5.80;;;;;;;-146.82;100.00;71671.09;5055636;28;20024;-75
2023/08/16 10:48:21;;;;;;;;;;;;;;;-146.82;100.00;71671.09;5074187;28;20527;-76
2023/08/16 10:51:06;;;;;;;11.15;6.30;;;;;;;-146.82;100.00;71671.09;5073323;28;19985;-77
2023/08/16 10:53:34;;;;;;;9.40;6.18;;;;;;;-146.82;100.00;71671.09;5072460;28;20500;-76
2023/08/16 10:56:07;;;;;;;15.00;7.63;;;;;;;-146.82;100.00;71671.09;5073652;28;20028;-77
2023/08/16 10:58:45;;;;;;;11.15;7.03;;;;;;;-146.82;100.00;71671.09;5106327;28;20031;-77
2023/08/16 11:01:13;;;;;;;8.65;6.97;;;;;;;-146.82;100.00;71671.09;5105104;28;20039;-76
2023/08/16 11:03:41;;;;;;;7.10;5.88;;;;;;;-146.82;100.00;71671.09;5073374;28;20090;-79
2023/08/16 11:06:22;;;;;;;12.43;6.55;;;;;;;-146.82;100.00;71671.09;5105826;28;20024;-76